Lakeside, Michigan
Current Conditions -  °F | °C
As of 10:55 AM on Friday 21 Nov 2014 (Local Time) from KMGC Reporting Station
Clear Clear  
Wind Chill: 23°   Ceiling: Unl
Heat Index: 28°   Visibility: 10mi
Dew Point: 12°   Wind: 5mph
Humidity: 51%   Direction: 230°SW
Pressure: 30.48"   Gusts: NA
Location:  41.84°N, 86.66°W
Report Text: KMGC 211555Z AUTO 23004KT 10SM CLR M02/M11 A3048 RMK AO2
Loading
Personal Weather Stations






























Interactive Weather Map New forecast layout! Learn more

10-Day Weather Forecast

Advertisements
Track Severe Weather on mobile